Time;durP1;ratioP1;P1;durP2;ratioP2;P2;SDS_P1;SDS_P2;PMS_P1;PMS_P2;Temp;Humidity;BMP_temperature;BMP_pressure;BME280_temperature;BME280_humidity;BME280_pressure;Samples;Min_cycle;Max_cycle;Signal;HPM_P1;HPM_P2
2023/06/18 00:02:01;;;;;;;40.30;32.05;;;16.50;99.90;;;;;;5030312;28;20107;-58
2023/06/18 00:04:27;;;;;;;39.50;30.73;;;16.50;99.90;;;;;;5051460;28;20503;-57
2023/06/18 00:06:54;;;;;;;45.67;35.80;;;16.50;99.90;;;;;;5050219;28;20029;-57
2023/06/18 00:09:20;;;;;;;45.42;34.08;;;16.50;99.90;;;;;;5047413;28;20120;-57
2023/06/18 00:11:46;;;;;;;36.63;28.75;;;16.50;99.90;;;;;;5048520;28;20036;-58
2023/06/18 00:14:11;;;;;;;44.95;34.30;;;16.50;99.90;;;;;;5053179;28;20334;-58
2023/06/18 00:16:37;;;;;;;48.08;36.55;;;16.40;99.90;;;;;;5036553;28;20043;-56
2023/06/18 00:19:03;;;;;;;44.85;34.08;;;16.40;99.90;;;;;;5045827;28;20052;-58
2023/06/18 00:21:29;;;;;;;37.92;31.02;;;16.30;99.90;;;;;;5034978;28;20044;-57
2023/06/18 00:23:54;;;;;;;48.20;35.50;;;16.30;99.90;;;;;;5028425;28;20141;-56
2023/06/18 00:26:22;;;;;;;52.78;35.92;;;16.30;99.90;;;;;;5046146;28;20102;-55
2023/06/18 00:28:47;;;;;;;38.90;31.13;;;16.30;99.90;;;;;;5028008;28;20036;-58
2023/06/18 00:31:13;;;;;;;41.70;31.85;;;16.30;99.90;;;;;;5055065;28;20049;-57
2023/06/18 00:33:39;;;;;;;44.92;33.03;;;16.30;99.90;;;;;;5052726;28;20465;-58
2023/06/18 00:36:06;;;;;;;43.35;33.47;;;16.30;99.90;;;;;;5042533;28;20048;-58
2023/06/18 00:38:33;;;;;;;44.15;33.45;;;16.30;99.90;;;;;;5032132;28;20161;-58
2023/06/18 00:40:59;;;;;;;43.22;32.53;;;16.30;99.90;;;;;;5048951;28;20538;-57
2023/06/18 00:43:28;;;;;;;44.85;34.90;;;16.20;99.90;;;;;;5046810;28;20555;-58
2023/06/18 00:46:01;;;;;;;52.78;36.55;;;16.20;99.90;;;;;;5033087;28;20050;-58
2023/06/18 00:48:28;;;;;;;43.20;34.17;;;16.20;99.90;;;;;;5026446;28;20541;-58
2023/06/18 00:50:53;;;;;;;48.13;35.28;;;16.20;99.90;;;;;;5037490;28;20052;-57
2023/06/18 00:53:20;;;;;;;56.63;38.83;;;16.10;99.90;;;;;;5052727;28;20058;-57
2023/06/18 00:55:50;;;;;;;43.78;32.88;;;16.10;99.90;;;;;;5063708;28;20119;-55
2023/06/18 00:58:17;;;;;;;51.05;36.25;;;16.00;99.90;;;;;;5046794;28;20123;-57
2023/06/18 01:00:43;;;;;;;46.90;34.65;;;16.00;99.90;;;;;;5050364;28;20045;-58
2023/06/18 01:03:17;;;;;;;49.22;37.50;;;15.90;99.90;;;;;;5048340;28;20048;-58
2023/06/18 01:05:53;;;;;;;49.38;35.70;;;16.00;99.90;;;;;;5033072;28;20377;-58
2023/06/18 01:08:23;;;;;;;52.88;36.33;;;15.90;99.90;;;;;;5049997;28;20041;-58
2023/06/18 01:11:05;;;;;;;50.83;36.63;;;15.90;99.90;;;;;;5055127;28;20045;-58
2023/06/18 01:13:36;;;;;;;46.03;35.38;;;15.90;99.90;;;;;;5045973;28;20043;-57
2023/06/18 01:16:06;;;;;;;53.58;36.22;;;15.80;99.90;;;;;;5064763;28;20132;-55
2023/06/18 01:18:36;;;;;;;61.75;38.65;;;15.80;99.90;;;;;;5045366;28;20552;-57
2023/06/18 01:21:12;;;;;;;56.85;37.75;;;15.70;99.90;;;;;;5048148;28;20063;-57
2023/06/18 01:23:57;;;;;;;57.83;37.35;;;15.70;99.90;;;;;;5029131;28;20040;-58
2023/06/18 01:26:26;;;;;;;54.92;36.75;;;15.60;99.90;;;;;;5049945;28;20541;-57
2023/06/18 01:28:53;;;;;;;45.78;34.45;;;15.60;99.90;;;;;;5047119;28;20097;-57
2023/06/18 01:31:25;;;;;;;46.65;34.45;;;15.50;99.90;;;;;;5049262;28;20036;-58
2023/06/18 01:33:53;;;;;;;47.30;35.25;;;15.50;99.90;;;;;;5043292;28;20041;-57
2023/06/18 01:36:34;;;;;;;44.05;32.65;;;15.50;99.90;;;;;;5068874;28;20105;-61
2023/06/18 01:39:20;;;;;;;49.83;36.72;;;15.50;99.90;;;;;;5024947;28;20040;-58
2023/06/18 01:41:48;;;;;;;47.65;37.03;;;15.50;99.90;;;;;;5011198;28;20079;-57
2023/06/18 01:44:19;;;;;;;47.63;31.67;;;15.50;99.90;;;;;;5054575;28;20040;-57
2023/06/18 01:46:47;;;;;;;53.28;36.45;;;15.50;99.90;;;;;;5048427;28;20047;-57
2023/06/18 01:49:13;;;;;;;53.60;37.63;;;15.50;99.90;;;;;;5031891;28;20055;-57
2023/06/18 01:51:40;;;;;;;50.67;35.58;;;15.50;99.90;;;;;;5030915;28;20045;-58
2023/06/18 01:54:07;;;;;;;49.60;36.90;;;15.40;99.90;;;;;;5050858;28;20036;-57
2023/06/18 01:56:33;;;;;;;48.78;35.80;;;15.40;99.90;;;;;;5046445;28;20048;-57
2023/06/18 01:59:01;;;;;;;53.33;37.53;;;15.40;99.90;;;;;;5035237;28;20040;-57
2023/06/18 02:01:30;;;;;;;55.42;37.45;;;15.40;99.90;;;;;;5037719;28;20044;-57
2023/06/18 02:03:56;;;;;;;50.70;34.88;;;15.40;99.90;;;;;;5029874;28;20062;-58
2023/06/18 02:06:22;;;;;;;45.05;34.20;;;15.40;99.90;;;;;;5047028;28;20052;-58
2023/06/18 02:08:48;;;;;;;54.00;36.95;;;15.40;99.90;;;;;;5047240;28;20039;-57
2023/06/18 02:11:13;;;;;;;51.97;35.60;;;15.30;99.90;;;;;;5053968;28;20490;-58
2023/06/18 02:13:39;;;;;;;57.67;38.30;;;15.20;99.90;;;;;;5051879;28;20041;-55
2023/06/18 02:16:05;;;;;;;43.92;33.20;;;15.30;99.90;;;;;;5045570;28;20052;-57
2023/06/18 02:18:31;;;;;;;40.00;31.13;;;15.30;99.90;;;;;;5052460;28;20131;-57
2023/06/18 02:20:57;;;;;;;52.85;37.30;;;15.30;99.90;;;;;;5050559;28;20045;-57
2023/06/18 02:23:23;;;;;;;52.92;37.38;;;15.30;99.90;;;;;;5046554;28;20392;-55
2023/06/18 02:25:48;;;;;;;57.15;37.35;;;15.20;99.90;;;;;;5046800;28;20041;-57
2023/06/18 02:28:14;;;;;;;47.25;34.45;;;15.20;99.90;;;;;;5052077;28;20037;-57
2023/06/18 02:30:40;;;;;;;49.92;35.53;;;15.20;99.90;;;;;;5052689;28;20446;-58
2023/06/18 02:33:06;;;;;;;58.83;37.90;;;15.20;99.90;;;;;;5058529;28;20055;-58
2023/06/18 02:35:32;;;;;;;63.63;38.05;;;15.20;99.90;;;;;;5039066;28;20170;-58
2023/06/18 02:37:57;;;;;;;46.38;34.58;;;15.20;99.90;;;;;;5058161;28;20048;-56
2023/06/18 02:40:23;;;;;;;52.83;37.92;;;15.20;99.90;;;;;;5053891;28;20094;-58
2023/06/18 02:42:50;;;;;;;57.60;38.67;;;15.20;99.90;;;;;;5058800;28;20490;-57
2023/06/18 02:45:21;;;;;;;48.72;34.25;;;15.20;99.90;;;;;;5049687;28;20462;-57
2023/06/18 02:47:48;;;;;;;50.90;35.40;;;15.20;99.90;;;;;;5054557;28;20399;-57
2023/06/18 02:50:15;;;;;;;52.58;36.58;;;15.10;99.90;;;;;;5037234;28;20040;-57
2023/06/18 02:52:42;;;;;;;61.67;39.47;;;15.10;99.90;;;;;;5052884;28;20398;-58
2023/06/18 02:55:09;;;;;;;50.30;34.78;;;15.10;99.90;;;;;;5051816;28;20051;-58
2023/06/18 02:57:36;;;;;;;36.30;28.90;;;15.10;99.90;;;;;;5051351;28;20060;-58
2023/06/18 03:00:04;;;;;;;50.25;33.50;;;15.10;99.90;;;;;;5038953;28;20052;-57
2023/06/18 03:02:31;;;;;;;49.92;34.67;;;15.20;99.90;;;;;;5029308;28;20044;-58
2023/06/18 03:04:56;;;;;;;45.75;33.28;;;15.20;99.90;;;;;;5064816;28;20041;-57
2023/06/18 03:07:22;;;;;;;38.28;29.30;;;15.10;99.90;;;;;;5051695;28;20055;-58
2023/06/18 03:09:48;;;;;;;42.13;32.38;;;15.10;99.90;;;;;;5035912;28;20110;-57
2023/06/18 03:12:14;;;;;;;50.00;34.45;;;15.10;99.90;;;;;;5047388;28;20039;-58
2023/06/18 03:14:39;;;;;;;47.55;34.28;;;15.10;99.90;;;;;;5032116;28;20052;-57
2023/06/18 03:17:05;;;;;;;48.47;33.42;;;15.10;99.90;;;;;;5037149;28;20060;-58
2023/06/18 03:19:31;;;;;;;72.50;39.38;;;15.20;99.90;;;;;;5035255;28;20041;-58
2023/06/18 03:21:56;;;;;;;46.88;33.63;;;15.20;99.90;;;;;;5038544;28;20530;-57
2023/06/18 03:24:24;;;;;;;71.22;37.38;;;15.20;99.90;;;;;;5043259;28;20526;-58
2023/06/18 03:26:50;;;;;;;66.93;40.13;;;15.10;99.90;;;;;;5047224;28;20048;-57
2023/06/18 03:29:16;;;;;;;52.03;34.53;;;15.00;99.90;;;;;;5048891;28;20112;-58
2023/06/18 03:31:42;;;;;;;60.03;36.95;;;15.00;99.90;;;;;;5051632;28;20128;-57
2023/06/18 03:34:08;;;;;;;55.13;35.90;;;15.00;99.90;;;;;;5050579;28;20044;-58
2023/06/18 03:36:41;;;;;;;40.42;29.23;;;15.00;99.90;;;;;;5051514;28;20093;-57
2023/06/18 03:39:09;;;;;;;47.70;34.47;;;15.00;99.90;;;;;;5051100;28;20052;-60
2023/06/18 03:41:35;;;;;;;43.63;31.77;;;15.00;99.90;;;;;;5049050;28;20037;-59
2023/06/18 03:44:02;;;;;;;46.30;32.05;;;15.00;99.90;;;;;;5067421;28;20115;-59
2023/06/18 03:46:27;;;;;;;51.20;34.60;;;15.00;99.90;;;;;;5050505;28;20104;-60
2023/06/18 03:48:53;;;;;;;48.83;34.78;;;15.10;99.90;;;;;;5033850;28;20203;-58
2023/06/18 03:51:19;;;;;;;42.08;32.00;;;15.10;99.90;;;;;;5048626;28;20041;-60
2023/06/18 03:53:45;;;;;;;43.85;31.27;;;15.10;99.90;;;;;;5049299;28;20495;-57
2023/06/18 03:56:11;;;;;;;53.28;35.15;;;15.10;99.90;;;;;;5034499;28;20114;-60
2023/06/18 03:58:36;;;;;;;51.05;34.20;;;15.10;99.90;;;;;;5022398;28;20076;-59
2023/06/18 04:01:02;;;;;;;57.45;34.45;;;15.10;99.90;;;;;;5044008;28;20051;-60
2023/06/18 04:03:28;;;;;;;47.85;32.85;;;15.20;99.90;;;;;;5033565;28;20500;-59
2023/06/18 04:05:54;;;;;;;52.80;34.95;;;15.20;99.90;;;;;;5033079;28;20040;-60
2023/06/18 04:08:20;;;;;;;50.17;32.28;;;15.20;99.90;;;;;;5041196;28;20568;-60
2023/06/18 04:10:47;;;;;;;43.90;31.15;;;15.20;99.90;;;;;;5044225;28;20048;-60
2023/06/18 04:13:17;;;;;;;54.60;33.95;;;15.20;99.90;;;;;;5032274;28;20044;-60
2023/06/18 04:15:45;;;;;;;52.85;34.63;;;15.20;99.90;;;;;;5045064;28;20781;-59
2023/06/18 04:18:11;;;;;;;49.25;33.72;;;15.20;99.90;;;;;;5045146;28;20407;-59
2023/06/18 04:20:37;;;;;;;41.28;29.58;;;15.30;99.90;;;;;;5027942;28;20041;-60
2023/06/18 04:23:03;;;;;;;34.65;26.95;;;15.30;99.90;;;;;;5047279;28;20182;-60
2023/06/18 04:25:29;;;;;;;48.60;31.85;;;15.30;99.90;;;;;;5049097;28;20585;-59
2023/06/18 04:27:55;;;;;;;44.38;29.73;;;15.40;99.90;;;;;;5058722;28;20119;-60
2023/06/18 04:30:20;;;;;;;45.78;30.45;;;15.40;99.90;;;;;;5042743;28;20044;-59
2023/06/18 04:32:46;;;;;;;43.00;30.13;;;15.30;99.90;;;;;;5045836;28;20511;-59
2023/06/18 04:35:12;;;;;;;57.60;31.98;;;15.40;99.90;;;;;;5045272;28;20051;-60
2023/06/18 04:37:38;;;;;;;46.00;29.83;;;15.30;99.90;;;;;;5044671;28;20541;-58
2023/06/18 04:40:08;;;;;;;39.63;28.20;;;15.30;99.90;;;;;;5044478;28;20640;-60
2023/06/18 04:42:35;;;;;;;45.38;31.73;;;15.30;99.90;;;;;;5045855;28;20123;-57
2023/06/18 04:45:00;;;;;;;34.88;24.77;;;15.30;99.90;;;;;;5044545;28;20127;-59
2023/06/18 04:47:26;;;;;;;36.88;27.70;;;15.30;99.90;;;;;;5043863;28;20143;-59
2023/06/18 04:49:52;;;;;;;55.80;33.03;;;15.30;99.90;;;;;;5044165;28;20046;-60
2023/06/18 04:52:17;;;;;;;54.72;31.83;;;15.30;99.90;;;;;;5042944;28;20059;-58
2023/06/18 04:55:18;;;;;;;69.05;33.28;;;15.30;99.90;;;;;;5032866;28;20047;-58
2023/06/18 04:57:44;;;;;;;53.42;32.28;;;15.20;99.90;;;;;;5045925;28;20577;-59
2023/06/18 05:00:10;;;;;;;43.35;29.50;;;15.20;99.90;;;;;;5051737;28;20064;-60
2023/06/18 05:02:36;;;;;;;53.20;31.90;;;15.20;99.90;;;;;;5046350;28;20070;-59
2023/06/18 05:05:02;;;;;;;51.08;31.95;;;15.20;99.90;;;;;;5027388;28;20053;-59
2023/06/18 05:07:27;;;;;;;56.28;33.45;;;15.20;99.90;;;;;;5044156;28;20098;-59
2023/06/18 05:09:53;;;;;;;51.20;32.15;;;15.20;99.90;;;;;;5027850;28;20689;-60
2023/06/18 05:12:19;;;;;;;46.42;31.73;;;15.20;99.90;;;;;;5058210;28;20032;-58
2023/06/18 05:14:45;;;;;;;41.50;30.15;;;15.30;99.90;;;;;;5030123;28;20506;-59
2023/06/18 05:17:10;;;;;;;38.88;27.50;;;15.20;99.90;;;;;;5012706;28;20534;-60
2023/06/18 05:19:36;;;;;;;39.58;28.52;;;15.20;99.90;;;;;;5045217;28;20025;-59
2023/06/18 05:22:02;;;;;;;43.83;29.48;;;15.30;99.90;;;;;;5043774;28;20504;-59
2023/06/18 05:24:27;;;;;;;49.33;30.58;;;15.30;99.90;;;;;;5047473;28;20098;-60
2023/06/18 05:26:53;;;;;;;35.40;26.95;;;15.40;99.90;;;;;;5043751;28;20553;-59
2023/06/18 05:29:19;;;;;;;36.75;27.75;;;15.40;99.90;;;;;;5055676;28;20051;-58
2023/06/18 05:31:45;;;;;;;41.42;28.60;;;15.50;99.90;;;;;;5028460;28;20032;-57
2023/06/18 05:34:10;;;;;;;32.42;25.10;;;15.60;99.90;;;;;;5049026;28;20040;-60
2023/06/18 05:36:36;;;;;;;35.60;27.85;;;15.60;99.90;;;;;;5030445;28;20082;-60
2023/06/18 05:39:02;;;;;;;33.15;24.65;;;15.60;99.90;;;;;;5047486;28;20137;-60
2023/06/18 05:41:28;;;;;;;35.35;28.08;;;15.70;99.90;;;;;;5048732;28;20044;-59
2023/06/18 05:43:54;;;;;;;32.15;24.55;;;15.70;99.90;;;;;;5029726;28;20385;-59
2023/06/18 05:46:20;;;;;;;39.25;29.27;;;15.70;99.90;;;;;;5045770;28;20174;-60
2023/06/18 05:48:45;;;;;;;31.25;23.85;;;15.80;99.90;;;;;;5045475;28;20047;-59
2023/06/18 05:51:11;;;;;;;37.65;29.13;;;15.80;99.90;;;;;;5040909;28;20055;-59
2023/06/18 05:53:37;;;;;;;29.48;23.98;;;15.90;99.90;;;;;;5046440;28;20036;-60
2023/06/18 05:56:03;;;;;;;35.45;28.92;;;15.90;99.90;;;;;;5045906;28;20052;-60
2023/06/18 05:58:28;;;;;;;32.03;26.15;;;16.00;99.90;;;;;;5044966;28;20411;-60
2023/06/18 06:00:54;;;;;;;37.17;28.92;;;16.10;99.90;;;;;;5044407;28;20094;-59
2023/06/18 06:03:20;;;;;;;34.67;26.50;;;16.30;99.90;;;;;;5029731;28;20183;-60
2023/06/18 06:05:46;;;;;;;32.13;26.38;;;16.40;99.90;;;;;;5042332;28;20101;-59
2023/06/18 06:08:11;;;;;;;30.25;25.70;;;16.50;99.90;;;;;;5026700;28;20291;-60
2023/06/18 06:10:37;;;;;;;31.17;26.65;;;16.50;99.90;;;;;;5047993;28;20199;-59
2023/06/18 06:13:03;;;;;;;34.90;27.35;;;16.50;99.90;;;;;;5044225;28;20045;-59
2023/06/18 06:15:29;;;;;;;34.95;27.17;;;16.60;99.90;;;;;;5042879;28;20494;-60
2023/06/18 06:17:55;;;;;;;33.60;28.08;;;16.70;99.90;;;;;;5044724;28;20036;-60
2023/06/18 06:20:21;;;;;;;33.13;25.90;;;16.70;99.90;;;;;;5048406;28;20458;-58
2023/06/18 06:22:47;;;;;;;31.88;24.85;;;16.80;99.90;;;;;;5044523;28;20083;-60
2023/06/18 06:25:12;;;;;;;29.35;24.52;;;16.70;99.90;;;;;;5046098;28;20135;-59
2023/06/18 06:27:38;;;;;;;31.70;25.65;;;16.90;99.90;;;;;;5046422;28;20494;-58
2023/06/18 06:30:06;;;;;;;30.10;25.23;;;16.90;99.90;;;;;;5040356;28;20094;-58
2023/06/18 06:32:33;;;;;;;37.88;28.95;;;17.00;99.90;;;;;;5033453;28;20039;-60
2023/06/18 06:34:59;;;;;;;38.88;28.83;;;17.00;99.90;;;;;;5048479;28;20097;-59
2023/06/18 06:37:26;;;;;;;31.23;26.63;;;17.10;99.90;;;;;;5043349;28;20041;-60
2023/06/18 06:39:52;;;;;;;33.53;27.33;;;17.10;99.90;;;;;;5036788;28;20043;-60
2023/06/18 06:42:18;;;;;;;32.70;26.27;;;17.30;99.90;;;;;;5037711;28;20044;-59
2023/06/18 06:44:43;;;;;;;29.48;25.23;;;17.50;99.90;;;;;;5056375;28;20043;-58
2023/06/18 06:47:09;;;;;;;33.97;28.17;;;17.60;99.90;;;;;;5040534;28;20056;-57
2023/06/18 06:49:35;;;;;;;30.20;26.42;;;17.80;99.90;;;;;;5044881;28;20048;-60
2023/06/18 06:52:01;;;;;;;33.28;27.45;;;17.90;99.90;;;;;;5035912;28;20483;-59
2023/06/18 06:54:26;;;;;;;33.10;25.90;;;17.90;99.90;;;;;;5031871;28;20076;-59
2023/06/18 06:56:52;;;;;;;33.50;27.08;;;17.90;99.90;;;;;;5047825;28;20526;-59
2023/06/18 06:59:18;;;;;;;35.47;28.10;;;18.00;99.90;;;;;;5044333;28;20072;-60
2023/06/18 07:01:44;;;;;;;37.38;29.38;;;18.00;99.90;;;;;;5021150;28;20075;-59
2023/06/18 07:04:10;;;;;;;33.33;28.25;;;18.10;99.90;;;;;;5046137;28;20654;-60
2023/06/18 07:06:39;;;;;;;37.70;29.30;;;18.10;99.90;;;;;;5039215;28;20052;-60
2023/06/18 07:09:06;;;;;;;35.45;28.55;;;18.10;99.90;;;;;;5042406;28;20044;-58
2023/06/18 07:11:35;;;;;;;33.15;25.35;;;18.20;99.90;;;;;;5045545;28;20739;-60
2023/06/18 07:14:01;;;;;;;34.88;28.52;;;18.30;99.90;;;;;;5029531;28;20109;-60
2023/06/18 07:16:27;;;;;;;32.80;26.65;;;18.30;99.90;;;;;;5059593;28;20488;-60
2023/06/18 07:18:53;;;;;;;33.42;27.00;;;18.50;99.90;;;;;;5001569;28;20071;-61
2023/06/18 07:21:18;;;;;;;30.85;25.80;;;18.50;99.90;;;;;;5041955;28;20047;-60
2023/06/18 07:23:44;;;;;;;39.30;29.10;;;18.70;99.90;;;;;;5053900;28;20718;-60
2023/06/18 07:26:10;;;;;;;34.28;27.40;;;18.70;99.90;;;;;;5010008;28;20071;-61
2023/06/18 07:28:36;;;;;;;33.20;27.50;;;18.80;99.90;;;;;;5021439;28;20515;-60
2023/06/18 07:31:02;;;;;;;35.63;27.75;;;18.90;99.90;;;;;;5040410;28;20063;-60
2023/06/18 07:33:28;;;;;;;33.15;26.67;;;18.90;99.90;;;;;;5038663;28;20047;-58
2023/06/18 07:35:54;;;;;;;34.15;24.77;;;18.90;99.90;;;;;;5040148;28;20496;-60
2023/06/18 07:38:20;;;;;;;30.00;23.42;;;19.00;99.90;;;;;;5063451;28;20427;-60
2023/06/18 07:40:45;;;;;;;32.65;26.35;;;19.10;99.90;;;;;;5048262;28;20488;-60
2023/06/18 07:43:11;;;;;;;34.47;26.02;;;19.20;99.90;;;;;;5046801;28;20131;-59
2023/06/18 07:45:38;;;;;;;40.40;28.23;;;19.20;99.90;;;;;;5045076;28;20407;-59
2023/06/18 07:48:04;;;;;;;34.90;27.05;;;19.30;99.90;;;;;;5044996;28;20040;-59
2023/06/18 07:50:30;;;;;;;32.63;26.13;;;19.30;99.90;;;;;;5060633;28;20565;-60
2023/06/18 07:52:56;;;;;;;37.47;26.75;;;19.40;99.90;;;;;;5060688;28;20032;-61
2023/06/18 07:55:23;;;;;;;37.50;26.92;;;19.60;99.90;;;;;;5063261;28;20664;-58
2023/06/18 07:57:48;;;;;;;36.72;26.52;;;19.70;99.90;;;;;;5042790;28;20051;-60
2023/06/18 08:00:14;;;;;;;32.88;26.17;;;19.80;99.90;;;;;;5061801;28;20052;-58
2023/06/18 08:02:40;;;;;;;32.72;25.13;;;20.00;99.90;;;;;;5012614;28;20048;-60
2023/06/18 08:05:07;;;;;;;30.85;24.73;;;20.10;99.90;;;;;;5042239;28;20507;-58
2023/06/18 08:07:32;;;;;;;33.70;26.35;;;20.20;99.90;;;;;;5037506;28;20586;-59
2023/06/18 08:09:58;;;;;;;32.83;26.88;;;20.30;99.90;;;;;;5039593;28;20159;-58
2023/06/18 08:12:25;;;;;;;32.88;25.25;;;20.40;99.90;;;;;;5038227;28;20040;-58
2023/06/18 08:14:50;;;;;;;32.00;24.90;;;20.40;99.90;;;;;;5061604;28;20043;-61
2023/06/18 08:17:17;;;;;;;31.52;24.05;;;20.60;99.90;;;;;;5026882;28;20044;-59
2023/06/18 08:19:45;;;;;;;29.67;25.10;;;20.70;99.90;;;;;;5039631;28;20048;-59
2023/06/18 08:22:17;;;;;;;28.48;23.83;;;21.00;99.90;;;;;;5043049;28;20040;-60
2023/06/18 08:24:44;;;;;;;32.00;24.40;;;21.20;99.90;;;;;;5029710;28;20044;-60
2023/06/18 08:27:12;;;;;;;29.73;24.08;;;21.40;99.90;;;;;;5041199;28;20032;-60
2023/06/18 08:29:38;;;;;;;24.70;22.08;;;21.60;99.90;;;;;;5042983;28;20043;-60
2023/06/18 08:32:07;;;;;;;29.45;23.45;;;21.70;99.90;;;;;;5030756;28;20124;-61
2023/06/18 08:34:34;;;;;;;27.55;22.42;;;21.90;99.90;;;;;;5043774;28;20503;-58
2023/06/18 08:37:00;;;;;;;25.92;20.00;;;21.90;99.90;;;;;;5038030;28;20048;-59
2023/06/18 08:39:26;;;;;;;28.67;24.00;;;22.20;99.90;;;;;;5022814;28;20564;-59
2023/06/18 08:42:00;;;;;;;23.30;20.13;;;22.40;99.90;;;;;;5043725;28;20503;-63
2023/06/18 08:44:26;;;;;;;25.45;21.65;;;22.50;99.90;;;;;;5042598;28;20103;-58
2023/06/18 08:46:57;;;;;;;26.25;21.23;;;22.50;99.90;;;;;;5042136;28;20316;-60
2023/06/18 08:49:25;;;;;;;23.15;18.95;;;22.60;99.90;;;;;;5042566;28;20040;-59
2023/06/18 08:51:56;;;;;;;22.30;18.58;;;22.60;99.90;;;;;;5040577;28;20349;-60
2023/06/18 08:54:27;;;;;;;21.38;17.20;;;22.60;99.90;;;;;;5039038;28;20176;-58
2023/06/18 08:57:00;;;;;;;23.40;18.50;;;22.80;99.90;;;;;;5059925;28;20037;-60
2023/06/18 08:59:26;;;;;;;23.40;19.20;;;23.00;99.90;;;;;;5059859;28;20140;-57
2023/06/18 09:01:53;;;;;;;21.50;16.80;;;23.10;99.90;;;;;;5025435;28;20047;-59
2023/06/18 09:04:21;;;;;;;20.48;17.25;;;23.10;99.90;;;;;;5027955;28;20044;-59
2023/06/18 09:06:47;;;;;;;19.67;16.13;;;23.10;99.90;;;;;;5040893;28;20044;-61
2023/06/18 09:09:13;;;;;;;18.83;16.23;;;23.20;99.90;;;;;;5008181;28;20098;-59
2023/06/18 09:11:39;;;;;;;22.25;18.58;;;23.20;99.90;;;;;;5058514;28;20040;-60
2023/06/18 09:14:06;;;;;;;18.60;16.08;;;23.30;99.90;;;;;;5044347;28;20052;-61
2023/06/18 09:16:31;;;;;;;18.90;14.85;;;23.40;99.90;;;;;;5042647;28;20396;-60
2023/06/18 09:18:59;;;;;;;18.80;15.45;;;23.50;99.90;;;;;;5024618;28;20052;-59
2023/06/18 09:21:40;;;;;;;17.95;14.52;;;23.60;99.90;;;;;;5044447;28;20052;-59
2023/06/18 09:24:18;;;;;;;17.15;13.48;;;23.70;99.90;;;;;;5044869;28;20098;-58
2023/06/18 09:26:44;;;;;;;18.77;14.15;;;23.80;99.90;;;;;;5041700;28;20087;-62
2023/06/18 09:29:12;;;;;;;19.05;13.07;;;23.90;99.90;;;;;;5039405;28;20584;-58
2023/06/18 09:31:44;;;;;;;16.58;14.68;;;23.90;99.90;;;;;;5040628;28;20147;-60
2023/06/18 09:34:15;;;;;;;15.63;14.05;;;24.00;99.90;;;;;;5025223;28;20045;-59
2023/06/18 09:36:42;;;;;;;16.40;13.10;;;24.10;99.90;;;;;;5025635;28;20044;-59
2023/06/18 09:39:25;;;;;;;15.38;12.07;;;24.20;99.90;;;;;;5025704;23;20660;-61
2023/06/18 09:41:55;;;;;;;13.27;11.63;;;24.20;99.90;;;;;;5080712;28;20059;-61
2023/06/18 09:44:22;;;;;;;13.05;11.75;;;24.20;99.90;;;;;;5083397;28;20411;-60
2023/06/18 09:46:56;;;;;;;15.13;10.82;;;24.30;99.90;;;;;;5087243;28;20485;-61
2023/06/18 09:49:24;;;;;;;11.93;10.25;;;24.40;99.10;;;;;;5082030;28;20075;-60
2023/06/18 09:51:50;;;;;;;11.77;9.35;;;24.50;99.00;;;;;;5077301;28;20398;-61
2023/06/18 09:54:17;;;;;;;12.82;9.05;;;24.70;99.10;;;;;;5082461;28;20665;-60
2023/06/18 09:56:57;;;;;;;11.40;9.48;;;24.80;98.20;;;;;;5083359;28;20140;-60
2023/06/18 09:59:23;;;;;;;11.43;9.07;;;24.90;98.20;;;;;;5079788;28;20071;-61
2023/06/18 10:01:50;;;;;;;11.25;8.57;;;25.10;98.30;;;;;;5059976;28;20040;-60
2023/06/18 10:04:16;;;;;;;10.38;9.00;;;25.10;97.10;;;;;;5068860;28;20108;-60
2023/06/18 10:06:51;;;;;;;8.90;8.00;;;25.00;97.00;;;;;;5066563;28;20045;-60
2023/06/18 10:09:19;;;;;;;10.65;9.30;;;25.00;96.70;;;;;;5079719;28;20037;-61
2023/06/18 10:11:48;;;;;;;12.85;9.40;;;25.00;97.00;;;;;;5078910;28;20062;-61
2023/06/18 10:14:16;;;;;;;10.15;8.63;;;25.00;96.90;;;;;;5081635;28;20047;-61
2023/06/18 10:16:48;;;;;;;9.45;8.07;;;25.10;96.90;;;;;;5064765;28;20059;-60
2023/06/18 10:19:25;;;;;;;10.98;8.18;;;25.30;97.00;;;;;;5074502;28;20048;-59
2023/06/18 10:22:05;;;;;;;8.82;7.18;;;25.30;95.30;;;;;;5041852;28;20040;-61
2023/06/18 10:24:39;;;;;;;12.65;7.45;;;25.30;94.50;;;;;;5079812;28;20043;-60
2023/06/18 10:27:06;;;;;;;10.88;7.72;;;25.30;95.20;;;;;;5077600;28;20513;-61
2023/06/18 10:29:35;;;;;;;8.40;7.50;;;25.30;95.30;;;;;;5081590;28;20036;-60
2023/06/18 10:32:03;;;;;;;11.43;7.80;;;25.50;95.00;;;;;;5060257;28;20452;-61
2023/06/18 10:34:29;;;;;;;8.55;7.75;;;25.70;94.80;;;;;;5076383;28;20040;-61
2023/06/18 10:36:57;;;;;;;9.25;7.82;;;25.70;94.30;;;;;;5079351;28;20044;-59
2023/06/18 10:39:23;;;;;;;8.77;7.38;;;25.80;94.10;;;;;;5080191;28;20253;-60
2023/06/18 10:41:52;;;;;;;11.07;7.55;;;25.80;93.70;;;;;;5082486;28;20047;-60
2023/06/18 10:44:50;;;;;;;9.32;7.32;;;25.80;94.20;;;;;;5075385;28;20043;-60
2023/06/18 10:47:29;;;;;;;9.10;7.60;;;25.90;93.90;;;;;;5064561;28;20119;-60
2023/06/18 10:50:07;;;;;;;9.93;7.50;;;25.90;93.80;;;;;;5057750;28;20032;-60
2023/06/18 10:52:43;;;;;;;10.30;7.82;;;25.90;94.20;;;;;;5082251;28;20078;-61
2023/06/18 10:55:21;;;;;;;8.73;7.57;;;26.10;93.60;;;;;;5046960;28;20050;-60
2023/06/18 10:57:49;;;;;;;10.15;7.75;;;26.10;93.50;;;;;;5086543;28;20043;-60
2023/06/18 11:00:25;;;;;;;9.13;8.18;;;26.20;93.40;;;;;;5064982;28;20109;-60
2023/06/18 11:02:59;;;;;;;7.60;6.55;;;26.40;93.50;;;;;;5071900;28;20171;-61
2023/06/18 11:05:31;;;;;;;10.57;7.78;;;26.60;93.60;;;;;;5063135;28;20047;-60
2023/06/18 11:08:01;;;;;;;8.77;7.30;;;26.60;92.80;;;;;;5076736;28;20040;-59
2023/06/18 11:10:48;;;;;;;8.30;7.03;;;26.60;92.80;;;;;;5070387;28;20067;-60
2023/06/18 11:13:14;;;;;;;8.00;7.15;;;26.80;92.50;;;;;;5078709;28;20533;-60
2023/06/18 11:16:05;;;;;;;8.25;7.43;;;26.80;92.10;;;;;;5086782;28;20032;-61
2023/06/18 11:18:32;;;;;;;9.27;7.47;;;26.90;92.00;;;;;;5080449;28;20682;-60
2023/06/18 11:20:59;;;;;;;9.30;7.93;;;26.90;91.50;;;;;;5080772;28;20040;-60
2023/06/18 11:23:26;;;;;;;10.00;8.10;;;26.90;91.80;;;;;;5068083;28;20039;-61
2023/06/18 11:25:53;;;;;;;9.25;7.97;;;27.00;91.80;;;;;;5081446;28;20066;-61
2023/06/18 11:28:21;;;;;;;10.07;7.18;;;27.10;91.50;;;;;;5065555;28;20086;-60
2023/06/18 11:30:51;;;;;;;12.75;7.70;;;27.20;90.80;;;;;;5064074;28;20048;-60
2023/06/18 11:33:25;;;;;;;10.60;8.10;;;27.30;90.80;;;;;;5080751;28;20041;-60
2023/06/18 11:35:51;;;;;;;10.07;8.05;;;27.30;90.10;;;;;;5085332;28;20123;-61
2023/06/18 11:38:21;;;;;;;8.05;7.07;;;27.30;90.50;;;;;;5080608;28;20119;-61
2023/06/18 11:40:52;;;;;;;8.00;7.10;;;27.40;90.30;;;;;;5084445;28;20050;-61
2023/06/18 11:43:19;;;;;;;10.18;7.60;;;27.30;90.20;;;;;;5067124;28;20039;-60
2023/06/18 11:45:53;;;;;;;8.38;6.90;;;27.20;89.80;;;;;;5081370;28;20040;-60
2023/06/18 11:48:22;;;;;;;8.00;7.03;;;27.30;89.00;;;;;;5065300;28;20187;-61
2023/06/18 11:50:53;;;;;;;8.57;7.68;;;27.30;90.00;;;;;;5062610;28;20048;-60
2023/06/18 11:53:23;;;;;;;11.38;7.18;;;27.40;89.10;;;;;;5068093;28;20414;-60
2023/06/18 11:55:53;;;;;;;8.18;7.38;;;27.40;89.40;;;;;;5050462;28;20052;-61
2023/06/18 11:58:20;;;;;;;11.85;7.45;;;27.50;88.30;;;;;;5082024;28;20344;-61
2023/06/18 12:00:46;;;;;;;8.35;7.05;;;27.60;86.20;;;;;;5079897;28;21129;-60
2023/06/18 12:03:12;;;;;;;8.25;7.30;;;27.70;89.00;;;;;;5065687;28;20064;-61
2023/06/18 12:05:39;;;;;;;10.65;7.18;;;28.00;86.90;;;;;;5062401;28;20040;-60
2023/06/18 12:08:13;;;;;;;9.82;7.47;;;28.10;87.30;;;;;;5082230;28;20047;-60
2023/06/18 12:10:43;;;;;;;9.40;7.35;;;28.20;85.00;;;;;;5078996;28;20488;-61
2023/06/18 12:13:18;;;;;;;8.32;6.82;;;28.20;85.70;;;;;;5062873;28;20039;-61
2023/06/18 12:15:58;;;;;;;8.25;7.45;;;28.20;85.90;;;;;;5060080;28;20044;-62
2023/06/18 12:18:28;;;;;;;9.02;7.38;;;28.30;85.50;;;;;;5062720;28;20116;-60
2023/06/18 12:20:54;;;;;;;7.57;6.75;;;28.20;84.20;;;;;;5048336;28;20487;-61
2023/06/18 12:23:22;;;;;;;7.90;6.90;;;28.20;85.10;;;;;;5061690;28;20510;-60
2023/06/18 12:25:48;;;;;;;12.48;7.25;;;28.20;85.50;;;;;;5080844;28;20470;-61
2023/06/18 12:28:14;;;;;;;9.15;7.78;;;28.30;84.90;;;;;;5061924;28;20052;-61
2023/06/18 12:30:42;;;;;;;9.48;7.55;;;28.40;82.90;;;;;;5067578;28;20032;-61
2023/06/18 12:33:13;;;;;;;7.72;6.80;;;28.40;83.00;;;;;;5046211;28;20044;-61
2023/06/18 12:35:44;;;;;;;8.32;7.32;;;28.40;84.30;;;;;;5051093;28;20082;-60